Buoy 16555

sailwx.info

Track history (hours):
 
Tides and Currents Weather Stations Pressure Air Temp Water Temp Dewpoint Dewpoint Depression Visibility Wind Speed Wind Dir Waves Ship Positions

Drifting buoy 16555

Last reported at 2017-Jun-27 12:00 UTC. Time now 2017-Jun-27 14:08 UTC.
Position S 28°35' E 092°17'.

Barometer 1025.7 mb
Water temperature 19.8 ° C

Date/timePositionNaut miles runAvg speedWind from/ knotsBaromVisibWave heightAir tempDewpointWater temp
2017-Jun-27 12:00S 28°35' E 092°17'0 0.0 1025.7 19.8
2017-Jun-27 11:00S 28°35' E 092°17'2 0.8 1025.3 19.8
2017-Jun-27 09:00S 28°34' E 092°15'1 0.1 1025.2 19.8
2017-Jun-27 04:00S 28°34' E 092°16'1 0.5 1027.5 19.7
2017-Jun-27 03:00S 28°34' E 092°15'1 0.2 1027.6 19.7
2017-Jun-27 00:00S 28°34' E 092°14'1 0.6 1026.4 19.7
2017-Jun-26 22:00S 28°34' E 092°16'1 0.5 1026.3 19.7
2017-Jun-26 21:00S 28°34' E 092°15'1 0.2 1026.5 19.7
2017-Jun-26 16:00S 28°34' E 092°16'1 0.6 1027.7 19.7
2017-Jun-26 15:00S 28°34' E 092°16'1 0.3 1027.7 19.7
2017-Jun-26 12:00S 28°34' E 092°17'1 0.5 1027.3 19.7
2017-Jun-26 11:00S 28°34' E 092°17'1 0.6 1026.8 19.7
2017-Jun-26 10:00S 28°35' E 092°17'2 2.1 1026.8 19.7
2017-Jun-26 09:00S 28°33' E 092°19'0 0.0 1026.7 19.7
2017-Jun-26 08:00S 28°33' E 092°19'0 0.0 1026.8 19.7
2017-Jun-26 07:00S 28°33' E 092°19'0 0.0 1026.7 19.7
2017-Jun-26 04:00S 28°33' E 092°19'1 0.8 1028.2 19.7
2017-Jun-26 03:00S 28°32' E 092°18'1 0.5 1028.0 19.7
2017-Jun-26 02:00S 28°32' E 092°19'0 0.0 1027.7 19.7
2017-Jun-26 01:00S 28°32' E 092°19'1 0.8 1027.1 19.7
2017-Jun-26 00:00S 28°32' E 092°19'1 0.8 1026.7 19.7
2017-Jun-25 23:00S 28°31' E 092°19'1 0.8 1026.3 19.7
2017-Jun-25 22:00S 28°31' E 092°19'4 0.9 1026.4 19.7
2017-Jun-25 18:00S 28°28' E 092°22'0 0.0 1027.5 19.7
2017-Jun-25 17:00S 28°28' E 092°22'0 0.0 1027.4 19.7
2017-Jun-25 15:00S 28°28' E 092°22'0 0.0 1027.3 19.7
2017-Jun-25 13:00S 28°28' E 092°22'1 1.3 1027.3 19.7
2017-Jun-25 12:00S 28°26' E 092°22'0 0.0 1026.8 19.7
2017-Jun-25 10:00S 28°26' E 092°22'1 0.6 1026.0 19.7
2017-Jun-25 09:00S 28°26' E 092°22'3 3.2 1025.9 19.7
2017-Jun-25 08:00S 28°23' E 092°21'2 0.4 1025.7 19.8
2017-Jun-25 03:00S 28°21' E 092°21'2 1.9 1027.7 19.8
2017-Jun-25 02:00S 28°19' E 092°20'0 0.0 1027.3 19.8
2017-Jun-25 01:00S 28°19' E 092°20'1 0.6 1027.4 19.8
2017-Jun-25 00:00S 28°19' E 092°20'2 2.5 1026.2 19.8
2017-Jun-24 23:00S 28°16' E 092°20'5 0.7 1025.6 19.8
2017-Jun-24 16:00S 28°11' E 092°19'0 0.0 1027.5 19.9
2017-Jun-24 15:00S 28°11' E 092°19'3 2.6 1027.7 19.9
2017-Jun-24 14:00S 28°09' E 092°18'0 0.0 1027.2 19.9
2017-Jun-24 13:00S 28°09' E 092°18'0 0.0 1026.7 19.9
2017-Jun-24 12:00S 28°09' E 092°18'2 0.8 1026.5 20.0
2017-Jun-24 10:00S 28°08' E 092°17'2 1.6 1026.2 20.0
2017-Jun-24 09:00S 28°07' E 092°16'7 0.9 1025.8 20.0
2017-Jun-24 01:00S 28°02' E 092°10'1 1.1 1027.2 20.1
2017-Jun-24 00:00S 28°02' E 092°11'4 4.0 1026.6 20.2
2017-Jun-23 23:00S 27°59' E 092°07'1 1.3 1026.7 20.2
2017-Jun-23 22:00S 27°58' E 092°07'0 0.0 1026.7 20.3
2017-Jun-23 21:00S 27°58' E 092°07'3 0.6 1026.4 20.3
2017-Jun-23 16:00S 27°56' E 092°04'1 0.5 1028.2 20.3
2017-Jun-23 15:00S 27°56' E 092°04'2 0.7 1028.5 20.4
2017-Jun-23 12:00S 27°55' E 092°02'1 1.1 1028.4 20.4
2017-Jun-23 11:00S 27°55' E 092°01'1 0.6 1027.6 20.4
2017-Jun-23 10:00S 27°56' E 092°01'0 0.0 1027.1 20.5
2017-Jun-23 09:00S 27°56' E 092°01'6 6.3 1027.4 20.6
2017-Jun-23 08:00S 27°53' E 091°54'2 0.4 1028.0 20.5
2017-Jun-23 03:00S 27°53' E 091°52'0 0.0 1029.8 20.4
2017-Jun-23 02:00S 27°53' E 091°52'0 0.0 1029.9 20.4
2017-Jun-23 01:00S 27°53' E 091°52'0 0.0 1029.4 20.4
2017-Jun-23 00:00S 27°53' E 091°52'2 2.0 1028.8 20.4
2017-Jun-22 23:00S 27°52' E 091°50'2 1.1 1028.8 20.4
2017-Jun-22 21:00S 27°51' E 091°47'0 0.0 1029.5 20.4
2017-Jun-22 20:00S 27°51' E 091°47'5 1.1 1029.8 20.4
2017-Jun-22 15:00S 27°51' E 091°41'1 0.2 1031.1 20.3
2017-Jun-22 12:00S 27°51' E 091°41'0 0.0 1031.5 20.1
2017-Jun-22 10:00S 27°51' E 091°41'2 1.7 1030.9 20.2
2017-Jun-22 09:00S 27°52' E 091°39'5 0.8 1030.5 20.1
2017-Jun-22 03:00S 27°53' E 091°34'3 1.4 1032.7 20.4
2017-Jun-22 01:00S 27°52' E 091°31'1 0.6 1031.7 20.4
2017-Jun-21 23:00S 27°52' E 091°29'2 0.9 1029.7 20.4
2017-Jun-21 21:00S 27°52' E 091°28'0 0.0 1029.5 20.4
2017-Jun-21 20:00S 27°52' E 091°28'6 1.0 1029.4 20.4
2017-Jun-21 14:00S 27°55' E 091°22'2 1.6 1031.3 19.7
2017-Jun-21 13:00S 27°56' E 091°20'1 1.3 1031.1 19.7
2017-Jun-21 12:00S 27°58' E 091°20'1 0.8 1030.6 19.7
2017-Jun-21 11:00S 27°58' E 091°20'2 1.6 1030.1 19.8
2017-Jun-21 10:00S 27°59' E 091°19'2 0.3 1030.0 19.8
2017-Jun-21 04:00S 28°00' E 091°17'0 0.0 1031.0 19.8
2017-Jun-21 03:00S 28°00' E 091°17'3 1.4 1031.0 19.8
2017-Jun-21 01:00S 28°01' E 091°14'0 0.0 1030.0 19.8
2017-Jun-21 00:00S 28°01' E 091°14'1 1.1 1029.5 19.8
2017-Jun-20 23:00S 28°01' E 091°13'0 0.0 1029.3 19.8
2017-Jun-20 22:00S 28°01' E 091°13'2 2.0 1029.1 19.8
2017-Jun-20 21:00S 28°02' E 091°11'0 0.0 1029.1 19.8
2017-Jun-20 20:00S 28°02' E 091°11'4 1.5 1029.2 19.8
2017-Jun-20 17:00S 28°05' E 091°08'0 0.0 1029.6 19.8
2017-Jun-20 15:00S 28°05' E 091°08'1 1.3 1030.0 19.9
2017-Jun-20 14:00S 28°07' E 091°08'0 0.0
2017-Jun-20 13:00S 28°07' E 091°08'2 0.7 1029.6 19.9
2017-Jun-20 10:00S 28°08' E 091°07'0 0.0 1028.2 19.9
2017-Jun-20 09:00S 28°08' E 091°07'4 0.8 1027.9 19.9
2017-Jun-20 04:00S 28°11' E 091°03'1 1.3 1029.7 19.9
2017-Jun-20 03:00S 28°12' E 091°02'1 1.1 1029.4 19.9
2017-Jun-20 02:00S 28°12' E 091°01'1 1.3 1028.9 19.9
2017-Jun-20 01:00S 28°13' E 091°01'1 0.6 1028.4 20.0
2017-Jun-20 00:00S 28°14' E 091°01'1 0.6 1027.6 20.0
2017-Jun-19 22:00S 28°14' E 090°59'1 0.6 1026.8 20.0
2017-Jun-19 21:00S 28°15' E 090°59'1 0.3 1026.7 20.0
2017-Jun-19 16:00S 28°16' E 090°59'0 0.0 1027.9 20.1
2017-Jun-19 15:00S 28°16' E 090°59'2 1.9 1027.7 20.1
2017-Jun-19 14:00S 28°18' E 090°58'0 0.0 1027.6 20.1
2017-Jun-19 13:00S 28°18' E 090°58'1 0.5 1027.4 20.2
2017-Jun-19 12:00S 28°18' E 090°58'7 2.3 1026.9 20.2
2017-Jun-19 09:00S 28°24' E 090°53'1 0.1 1025.5 20.2
2017-Jun-19 01:00S 28°25' E 090°53'1 0.6 1025.4 20.2
2017-Jun-19 00:00S 28°25' E 090°53'1 0.6 1024.5 20.2
2017-Jun-18 23:00S 28°25' E 090°53'1 1.1 1024.2 20.2
2017-Jun-18 22:00S 28°25' E 090°52'4 1.0 1024.3 20.2
2017-Jun-18 18:00S 28°28' E 090°49'1 0.3 1024.5 20.3
2017-Jun-18 16:00S 28°28' E 090°49'4 1.1 1024.6 20.4
2017-Jun-18 12:00S 28°32' E 090°47'2 1.6 1023.6 20.4
2017-Jun-18 11:00S 28°34' E 090°46'0 0.0 1023.2 20.4
2017-Jun-18 10:00S 28°34' E 090°46'2 2.2 1022.4 20.4
2017-Jun-18 09:00S 28°34' E 090°44'0 0.0 1022.5 20.4
2017-Jun-18 08:00S 28°34' E 090°44'4 0.6 1022.4 20.4
2017-Jun-18 01:00S 28°37' E 090°41'1 0.6 1023.3 20.4
2017-Jun-17 23:00S 28°38' E 090°40'5 1.6 1022.5 20.4
2017-Jun-17 20:00S 28°43' E 090°40'0 0.0 1023.0 20.3
2017-Jun-17 19:00S 28°43' E 090°40'2 2.5 1023.1 20.3
2017-Jun-17 18:00S 28°45' E 090°41'1 0.2 1023.2 20.2
2017-Jun-17 15:00S 28°44' E 090°41'0 0.0 1023.7 20.4
2017-Jun-17 14:00S 28°44' E 090°41'2 2.0 1024.3 20.7
2017-Jun-17 13:00S 28°46' E 090°39'0 0.0 1024.3 20.8
2017-Jun-17 12:00S 28°46' E 090°39'   1023.9 20.8
Track history (hours):
 
Tides and Currents Weather Stations Pressure Air Temp Water Temp Dewpoint Dewpoint Depression Visibility Wind Speed Wind Dir Waves Ship Positions

Drifting buoy 16555

Last reported at 2017-Jun-27 12:00 UTC. Time now 2017-Jun-27 14:08 UTC.
Position S 28°35' E 092°17'.

Barometer 1025.7 mb
Water temperature 19.8 ° C

Date/timePositionNaut miles runAvg speedWind from/ knotsBaromVisibWave heightAir tempDewpointWater temp
2017-Jun-27 12:00S 28°35' E 092°17'0 0.0 1025.7 19.8
2017-Jun-27 11:00S 28°35' E 092°17'2 0.8 1025.3 19.8
2017-Jun-27 09:00S 28°34' E 092°15'1 0.1 1025.2 19.8
2017-Jun-27 04:00S 28°34' E 092°16'1 0.5 1027.5 19.7
2017-Jun-27 03:00S 28°34' E 092°15'1 0.2 1027.6 19.7
2017-Jun-27 00:00S 28°34' E 092°14'1 0.6 1026.4 19.7
2017-Jun-26 22:00S 28°34' E 092°16'1 0.5 1026.3 19.7
2017-Jun-26 21:00S 28°34' E 092°15'1 0.2 1026.5 19.7
2017-Jun-26 16:00S 28°34' E 092°16'1 0.6 1027.7 19.7
2017-Jun-26 15:00S 28°34' E 092°16'1 0.3 1027.7 19.7
2017-Jun-26 12:00S 28°34' E 092°17'1 0.5 1027.3 19.7
2017-Jun-26 11:00S 28°34' E 092°17'1 0.6 1026.8 19.7
2017-Jun-26 10:00S 28°35' E 092°17'2 2.1 1026.8 19.7
2017-Jun-26 09:00S 28°33' E 092°19'0 0.0 1026.7 19.7
2017-Jun-26 08:00S 28°33' E 092°19'0 0.0 1026.8 19.7
2017-Jun-26 07:00S 28°33' E 092°19'0 0.0 1026.7 19.7
2017-Jun-26 04:00S 28°33' E 092°19'1 0.8 1028.2 19.7
2017-Jun-26 03:00S 28°32' E 092°18'1 0.5 1028.0 19.7
2017-Jun-26 02:00S 28°32' E 092°19'0 0.0 1027.7 19.7
2017-Jun-26 01:00S 28°32' E 092°19'1 0.8 1027.1 19.7
2017-Jun-26 00:00S 28°32' E 092°19'1 0.8 1026.7 19.7
2017-Jun-25 23:00S 28°31' E 092°19'1 0.8 1026.3 19.7
2017-Jun-25 22:00S 28°31' E 092°19'4 0.9 1026.4 19.7
2017-Jun-25 18:00S 28°28' E 092°22'0 0.0 1027.5 19.7
2017-Jun-25 17:00S 28°28' E 092°22'0 0.0 1027.4 19.7
2017-Jun-25 15:00S 28°28' E 092°22'0 0.0 1027.3 19.7
2017-Jun-25 13:00S 28°28' E 092°22'1 1.3 1027.3 19.7
2017-Jun-25 12:00S 28°26' E 092°22'0 0.0 1026.8 19.7
2017-Jun-25 10:00S 28°26' E 092°22'1 0.6 1026.0 19.7
2017-Jun-25 09:00S 28°26' E 092°22'3 3.2 1025.9 19.7
2017-Jun-25 08:00S 28°23' E 092°21'2 0.4 1025.7 19.8
2017-Jun-25 03:00S 28°21' E 092°21'2 1.9 1027.7 19.8
2017-Jun-25 02:00S 28°19' E 092°20'0 0.0 1027.3 19.8
2017-Jun-25 01:00S 28°19' E 092°20'1 0.6 1027.4 19.8
2017-Jun-25 00:00S 28°19' E 092°20'2 2.5 1026.2 19.8
2017-Jun-24 23:00S 28°16' E 092°20'5 0.7 1025.6 19.8
2017-Jun-24 16:00S 28°11' E 092°19'0 0.0 1027.5 19.9
2017-Jun-24 15:00S 28°11' E 092°19'3 2.6 1027.7 19.9
2017-Jun-24 14:00S 28°09' E 092°18'0 0.0 1027.2 19.9
2017-Jun-24 13:00S 28°09' E 092°18'0 0.0 1026.7 19.9
2017-Jun-24 12:00S 28°09' E 092°18'2 0.8 1026.5 20.0
2017-Jun-24 10:00S 28°08' E 092°17'2 1.6 1026.2 20.0
2017-Jun-24 09:00S 28°07' E 092°16'7 0.9 1025.8 20.0
2017-Jun-24 01:00S 28°02' E 092°10'1 1.1 1027.2 20.1
2017-Jun-24 00:00S 28°02' E 092°11'4 4.0 1026.6 20.2
2017-Jun-23 23:00S 27°59' E 092°07'1 1.3 1026.7 20.2
2017-Jun-23 22:00S 27°58' E 092°07'0 0.0 1026.7 20.3
2017-Jun-23 21:00S 27°58' E 092°07'3 0.6 1026.4 20.3
2017-Jun-23 16:00S 27°56' E 092°04'1 0.5 1028.2 20.3
2017-Jun-23 15:00S 27°56' E 092°04'2 0.7 1028.5 20.4
2017-Jun-23 12:00S 27°55' E 092°02'1 1.1 1028.4 20.4
2017-Jun-23 11:00S 27°55' E 092°01'1 0.6 1027.6 20.4
2017-Jun-23 10:00S 27°56' E 092°01'0 0.0 1027.1 20.5
2017-Jun-23 09:00S 27°56' E 092°01'6 6.3 1027.4 20.6
2017-Jun-23 08:00S 27°53' E 091°54'2 0.4 1028.0 20.5
2017-Jun-23 03:00S 27°53' E 091°52'0 0.0 1029.8 20.4
2017-Jun-23 02:00S 27°53' E 091°52'0 0.0 1029.9 20.4
2017-Jun-23 01:00S 27°53' E 091°52'0 0.0 1029.4 20.4
2017-Jun-23 00:00S 27°53' E 091°52'2 2.0 1028.8 20.4
2017-Jun-22 23:00S 27°52' E 091°50'2 1.1 1028.8 20.4
2017-Jun-22 21:00S 27°51' E 091°47'0 0.0 1029.5 20.4
2017-Jun-22 20:00S 27°51' E 091°47'5 1.1 1029.8 20.4
2017-Jun-22 15:00S 27°51' E 091°41'1 0.2 1031.1 20.3
2017-Jun-22 12:00S 27°51' E 091°41'0 0.0 1031.5 20.1
2017-Jun-22 10:00S 27°51' E 091°41'2 1.7 1030.9 20.2
2017-Jun-22 09:00S 27°52' E 091°39'5 0.8 1030.5 20.1
2017-Jun-22 03:00S 27°53' E 091°34'3 1.4 1032.7 20.4
2017-Jun-22 01:00S 27°52' E 091°31'1 0.6 1031.7 20.4
2017-Jun-21 23:00S 27°52' E 091°29'2 0.9 1029.7 20.4
2017-Jun-21 21:00S 27°52' E 091°28'0 0.0 1029.5 20.4
2017-Jun-21 20:00S 27°52' E 091°28'6 1.0 1029.4 20.4
2017-Jun-21 14:00S 27°55' E 091°22'2 1.6 1031.3 19.7
2017-Jun-21 13:00S 27°56' E 091°20'1 1.3 1031.1 19.7
2017-Jun-21 12:00S 27°58' E 091°20'1 0.8 1030.6 19.7
2017-Jun-21 11:00S 27°58' E 091°20'2 1.6 1030.1 19.8
2017-Jun-21 10:00S 27°59' E 091°19'2 0.3 1030.0 19.8
2017-Jun-21 04:00S 28°00' E 091°17'0 0.0 1031.0 19.8
2017-Jun-21 03:00S 28°00' E 091°17'3 1.4 1031.0 19.8
2017-Jun-21 01:00S 28°01' E 091°14'0 0.0 1030.0 19.8
2017-Jun-21 00:00S 28°01' E 091°14'1 1.1 1029.5 19.8
2017-Jun-20 23:00S 28°01' E 091°13'0 0.0 1029.3 19.8
2017-Jun-20 22:00S 28°01' E 091°13'2 2.0 1029.1 19.8
2017-Jun-20 21:00S 28°02' E 091°11'0 0.0 1029.1 19.8
2017-Jun-20 20:00S 28°02' E 091°11'4 1.5 1029.2 19.8
2017-Jun-20 17:00S 28°05' E 091°08'0 0.0 1029.6 19.8
2017-Jun-20 15:00S 28°05' E 091°08'1 1.3 1030.0 19.9
2017-Jun-20 14:00S 28°07' E 091°08'0 0.0
2017-Jun-20 13:00S 28°07' E 091°08'2 0.7 1029.6 19.9
2017-Jun-20 10:00S 28°08' E 091°07'0 0.0 1028.2 19.9
2017-Jun-20 09:00S 28°08' E 091°07'4 0.8 1027.9 19.9
2017-Jun-20 04:00S 28°11' E 091°03'1 1.3 1029.7 19.9
2017-Jun-20 03:00S 28°12' E 091°02'1 1.1 1029.4 19.9
2017-Jun-20 02:00S 28°12' E 091°01'1 1.3 1028.9 19.9
2017-Jun-20 01:00S 28°13' E 091°01'1 0.6 1028.4 20.0
2017-Jun-20 00:00S 28°14' E 091°01'1 0.6 1027.6 20.0
2017-Jun-19 22:00S 28°14' E 090°59'1 0.6 1026.8 20.0
2017-Jun-19 21:00S 28°15' E 090°59'1 0.3 1026.7 20.0
2017-Jun-19 16:00S 28°16' E 090°59'0 0.0 1027.9 20.1
2017-Jun-19 15:00S 28°16' E 090°59'2 1.9 1027.7 20.1
2017-Jun-19 14:00S 28°18' E 090°58'0 0.0 1027.6 20.1
2017-Jun-19 13:00S 28°18' E 090°58'1 0.5 1027.4 20.2
2017-Jun-19 12:00S 28°18' E 090°58'7 2.3 1026.9 20.2
2017-Jun-19 09:00S 28°24' E 090°53'1 0.1 1025.5 20.2
2017-Jun-19 01:00S 28°25' E 090°53'1 0.6 1025.4 20.2
2017-Jun-19 00:00S 28°25' E 090°53'1 0.6 1024.5 20.2
2017-Jun-18 23:00S 28°25' E 090°53'1 1.1 1024.2 20.2
2017-Jun-18 22:00S 28°25' E 090°52'4 1.0 1024.3 20.2
2017-Jun-18 18:00S 28°28' E 090°49'1 0.3 1024.5 20.3
2017-Jun-18 16:00S 28°28' E 090°49'4 1.1 1024.6 20.4
2017-Jun-18 12:00S 28°32' E 090°47'2 1.6 1023.6 20.4
2017-Jun-18 11:00S 28°34' E 090°46'0 0.0 1023.2 20.4
2017-Jun-18 10:00S 28°34' E 090°46'2 2.2 1022.4 20.4
2017-Jun-18 09:00S 28°34' E 090°44'0 0.0 1022.5 20.4
2017-Jun-18 08:00S 28°34' E 090°44'4 0.6 1022.4 20.4
2017-Jun-18 01:00S 28°37' E 090°41'1 0.6 1023.3 20.4
2017-Jun-17 23:00S 28°38' E 090°40'5 1.6 1022.5 20.4
2017-Jun-17 20:00S 28°43' E 090°40'0 0.0 1023.0 20.3
2017-Jun-17 19:00S 28°43' E 090°40'2 2.5 1023.1 20.3
2017-Jun-17 18:00S 28°45' E 090°41'1 0.2 1023.2 20.2
2017-Jun-17 15:00S 28°44' E 090°41'0 0.0 1023.7 20.4
2017-Jun-17 14:00S 28°44' E 090°41'2 2.0 1024.3 20.7
2017-Jun-17 13:00S 28°46' E 090°39'0 0.0 1024.3 20.8
2017-Jun-17 12:00S 28°46' E 090°39'   1023.9 20.8

Dump ship's entire track history